windsock image

Welcome to Bigfield Strip.

anemometer image
     

 Help for dials.  
 
Local Met:

Wind:   
10 Min average:  
214 ° / 8.2 kts (9.6)
215° / 8.9

Temperature:  
18.1°C C
Dew Point:  
13.2°C C
QNH:  
Trend:  
1013.3 mb mb
+0.1mb/hr
BigField Strip. This image updates approximately every minute, it can have a two minute delay.  
 

Humidity:  
73 %
Sunrise:   06:56z
Sunset:   16:37z
Updated:  
  UTC
 
   More met info, trends, radar, history etc. available here   

LUTON Metar   EGGW 311620Z 17009KT CAVOK 19/11 Q1014
 
  TAF   2014/10/31 12:15 TAF EGGW 311059Z 3112/0112 17014KT 9999 FEW040 PROB30 TEMPO 3112/3118 8000 BECMG 3118/3121 6000 PROB30 TEMPO 3121/0104 3500 BR TEMPO 0103/0108 3000 -RA BR BKN005 BECMG 0108/0111 9999 24011KT
 
BENSON Metar   EGUB 311550Z 14016KT CAVOK 19/12 Q1014 BLU NOSIG
 
  TAF   2014/10/31 15:03 TAF EGUB 311333Z 3115/3118 15014KT CAVOK PROB30 TEMPO 3115/3118 15015G25KT
 
Big Field view 1 icon   Big Field view 2 icon   Big Field view 3 icon   Chart AL3a in PDF icon   Chart AL3a in Word icon

WARNING:
This information is provided by the Airstrip unofficial weather station, DO NOT depend on the data provided here for any purpose.
This page is updated for latest Metars & TAF's every 5 minutes. Refresh the browser to check for the lastest.
Page designed for a minimum browser size of 1024x768.
© Copyright 2014 BigField Strip. This page auto generated 16:46 UTC - 31/10/2014   Contact Us
Valid HTML 4.01 Transitional     Windows uptime: 2 Days 22 Hours 9 Minutes 32 Seconds    WD started: 18:42 28/10/14    Free memory: 1509MB     Valid CSS!